sensor_id;sensor_type;location;lat;lon;timestamp;P1;durP1;ratioP1;P2;durP2;ratioP2
7657;SDS011;8462;53.156;8.220;2023-02-17T00:01:24;24.17;;;16.17;;
7657;SDS011;8462;53.156;8.220;2023-02-17T00:03:52;25.97;;;15.97;;
7657;SDS011;8462;53.156;8.220;2023-02-17T00:06:20;26.43;;;15.90;;
7657;SDS011;8462;53.156;8.220;2023-02-17T00:08:48;25.50;;;14.97;;
7657;SDS011;8462;53.156;8.220;2023-02-17T00:11:17;28.37;;;16.03;;
7657;SDS011;8462;53.156;8.220;2023-02-17T00:13:45;25.83;;;16.43;;
7657;SDS011;8462;53.156;8.220;2023-02-17T00:16:14;22.37;;;15.57;;
7657;SDS011;8462;53.156;8.220;2023-02-17T00:18:44;26.53;;;16.27;;
7657;SDS011;8462;53.156;8.220;2023-02-17T00:21:12;28.10;;;16.73;;
7657;SDS011;8462;53.156;8.220;2023-02-17T00:23:42;20.60;;;14.43;;
7657;SDS011;8462;53.156;8.220;2023-02-17T00:26:10;22.80;;;15.03;;
7657;SDS011;8462;53.156;8.220;2023-02-17T00:28:39;25.13;;;15.03;;
7657;SDS011;8462;53.156;8.220;2023-02-17T00:31:07;19.77;;;13.73;;
7657;SDS011;8462;53.156;8.220;2023-02-17T00:33:36;24.47;;;14.10;;
7657;SDS011;8462;53.156;8.220;2023-02-17T00:36:04;24.13;;;14.07;;
7657;SDS011;8462;53.156;8.220;2023-02-17T00:38:32;21.80;;;14.30;;
7657;SDS011;8462;53.156;8.220;2023-02-17T00:40:59;21.27;;;14.30;;
7657;SDS011;8462;53.156;8.220;2023-02-17T00:43:26;20.50;;;14.07;;
7657;SDS011;8462;53.156;8.220;2023-02-17T00:45:55;22.93;;;13.50;;
7657;SDS011;8462;53.156;8.220;2023-02-17T00:48:22;23.77;;;13.87;;
7657;SDS011;8462;53.156;8.220;2023-02-17T00:50:49;20.43;;;13.77;;
7657;SDS011;8462;53.156;8.220;2023-02-17T00:53:16;20.50;;;13.07;;
7657;SDS011;8462;53.156;8.220;2023-02-17T00:55:43;19.90;;;13.57;;
7657;SDS011;8462;53.156;8.220;2023-02-17T00:58:10;21.50;;;13.60;;
7657;SDS011;8462;53.156;8.220;2023-02-17T01:00:37;22.07;;;13.10;;
7657;SDS011;8462;53.156;8.220;2023-02-17T01:03:05;21.83;;;13.70;;
7657;SDS011;8462;53.156;8.220;2023-02-17T01:05:33;19.53;;;13.07;;
7657;SDS011;8462;53.156;8.220;2023-02-17T01:08:05;22.93;;;13.13;;
7657;SDS011;8462;53.156;8.220;2023-02-17T01:10:34;21.70;;;13.60;;
7657;SDS011;8462;53.156;8.220;2023-02-17T01:13:02;21.20;;;13.67;;
7657;SDS011;8462;53.156;8.220;2023-02-17T01:15:29;19.13;;;12.50;;
7657;SDS011;8462;53.156;8.220;2023-02-17T01:17:57;19.47;;;12.57;;
7657;SDS011;8462;53.156;8.220;2023-02-17T01:20:25;17.97;;;11.83;;
7657;SDS011;8462;53.156;8.220;2023-02-17T01:22:52;17.70;;;11.50;;
7657;SDS011;8462;53.156;8.220;2023-02-17T01:25:20;18.30;;;11.67;;
7657;SDS011;8462;53.156;8.220;2023-02-17T01:27:47;20.03;;;12.73;;
7657;SDS011;8462;53.156;8.220;2023-02-17T01:30:14;17.93;;;11.13;;
7657;SDS011;8462;53.156;8.220;2023-02-17T01:32:43;17.87;;;11.63;;
7657;SDS011;8462;53.156;8.220;2023-02-17T01:35:10;18.10;;;11.90;;
7657;SDS011;8462;53.156;8.220;2023-02-17T01:37:38;16.80;;;11.00;;
7657;SDS011;8462;53.156;8.220;2023-02-17T01:40:06;15.83;;;10.87;;
7657;SDS011;8462;53.156;8.220;2023-02-17T01:42:33;19.57;;;11.87;;
7657;SDS011;8462;53.156;8.220;2023-02-17T01:48:05;16.17;;;10.13;;
7657;SDS011;8462;53.156;8.220;2023-02-17T01:50:38;16.20;;;10.23;;
7657;SDS011;8462;53.156;8.220;2023-02-17T01:53:10;15.00;;;10.20;;
7657;SDS011;8462;53.156;8.220;2023-02-17T01:55:40;17.13;;;11.03;;
7657;SDS011;8462;53.156;8.220;2023-02-17T01:58:08;17.90;;;10.73;;
7657;SDS011;8462;53.156;8.220;2023-02-17T02:00:38;16.77;;;9.80;;
7657;SDS011;8462;53.156;8.220;2023-02-17T02:03:06;18.53;;;10.37;;
7657;SDS011;8462;53.156;8.220;2023-02-17T02:05:36;16.20;;;10.47;;
7657;SDS011;8462;53.156;8.220;2023-02-17T02:08:05;17.47;;;10.30;;
7657;SDS011;8462;53.156;8.220;2023-02-17T02:10:33;17.47;;;10.57;;
7657;SDS011;8462;53.156;8.220;2023-02-17T02:13:03;16.60;;;10.30;;
7657;SDS011;8462;53.156;8.220;2023-02-17T02:15:33;16.27;;;11.00;;
7657;SDS011;8462;53.156;8.220;2023-02-17T02:18:14;16.30;;;10.37;;
7657;SDS011;8462;53.156;8.220;2023-02-17T02:21:10;18.23;;;10.73;;
7657;SDS011;8462;53.156;8.220;2023-02-17T02:24:08;18.23;;;10.07;;
7657;SDS011;8462;53.156;8.220;2023-02-17T02:27:11;17.23;;;10.27;;
7657;SDS011;8462;53.156;8.220;2023-02-17T02:30:01;18.90;;;10.53;;
7657;SDS011;8462;53.156;8.220;2023-02-17T02:32:58;18.73;;;11.17;;
7657;SDS011;8462;53.156;8.220;2023-02-17T02:35:33;20.13;;;10.90;;
7657;SDS011;8462;53.156;8.220;2023-02-17T02:38:08;19.53;;;10.67;;
7657;SDS011;8462;53.156;8.220;2023-02-17T02:40:40;19.17;;;11.07;;
7657;SDS011;8462;53.156;8.220;2023-02-17T02:43:12;19.83;;;10.63;;
7657;SDS011;8462;53.156;8.220;2023-02-17T02:45:40;19.27;;;10.67;;
7657;SDS011;8462;53.156;8.220;2023-02-17T02:48:09;17.90;;;10.23;;
7657;SDS011;8462;53.156;8.220;2023-02-17T02:50:43;18.43;;;10.57;;
7657;SDS011;8462;53.156;8.220;2023-02-17T02:53:35;19.27;;;11.70;;
7657;SDS011;8462;53.156;8.220;2023-02-17T02:56:30;18.77;;;10.43;;
7657;SDS011;8462;53.156;8.220;2023-02-17T02:59:09;20.63;;;11.10;;
7657;SDS011;8462;53.156;8.220;2023-02-17T03:01:45;17.53;;;10.77;;
7657;SDS011;8462;53.156;8.220;2023-02-17T03:04:18;22.33;;;11.80;;
7657;SDS011;8462;53.156;8.220;2023-02-17T03:06:57;18.70;;;10.87;;
7657;SDS011;8462;53.156;8.220;2023-02-17T03:09:29;22.17;;;11.77;;
7657;SDS011;8462;53.156;8.220;2023-02-17T03:11:57;18.40;;;11.07;;
7657;SDS011;8462;53.156;8.220;2023-02-17T03:14:25;20.63;;;10.40;;
7657;SDS011;8462;53.156;8.220;2023-02-17T03:16:53;21.00;;;10.60;;
7657;SDS011;8462;53.156;8.220;2023-02-17T03:19:23;19.13;;;11.50;;
7657;SDS011;8462;53.156;8.220;2023-02-17T03:21:52;20.27;;;11.60;;
7657;SDS011;8462;53.156;8.220;2023-02-17T03:24:22;23.30;;;11.93;;
7657;SDS011;8462;53.156;8.220;2023-02-17T03:26:49;22.30;;;11.80;;
7657;SDS011;8462;53.156;8.220;2023-02-17T03:29:16;26.60;;;12.93;;
7657;SDS011;8462;53.156;8.220;2023-02-17T03:31:43;24.87;;;13.07;;
7657;SDS011;8462;53.156;8.220;2023-02-17T03:34:10;24.13;;;12.53;;
7657;SDS011;8462;53.156;8.220;2023-02-17T03:36:39;30.47;;;14.93;;
7657;SDS011;8462;53.156;8.220;2023-02-17T03:39:07;26.13;;;13.57;;
7657;SDS011;8462;53.156;8.220;2023-02-17T03:41:34;26.10;;;13.67;;
7657;SDS011;8462;53.156;8.220;2023-02-17T03:44:01;27.63;;;15.13;;
7657;SDS011;8462;53.156;8.220;2023-02-17T03:46:28;26.80;;;14.60;;
7657;SDS011;8462;53.156;8.220;2023-02-17T03:48:55;29.07;;;15.03;;
7657;SDS011;8462;53.156;8.220;2023-02-17T03:51:23;32.13;;;15.80;;
7657;SDS011;8462;53.156;8.220;2023-02-17T03:53:52;32.80;;;17.03;;
7657;SDS011;8462;53.156;8.220;2023-02-17T03:56:19;33.50;;;17.30;;
7657;SDS011;8462;53.156;8.220;2023-02-17T03:58:46;31.30;;;16.47;;
7657;SDS011;8462;53.156;8.220;2023-02-17T04:01:13;34.60;;;17.47;;
7657;SDS011;8462;53.156;8.220;2023-02-17T04:03:40;33.97;;;16.87;;
7657;SDS011;8462;53.156;8.220;2023-02-17T04:06:08;31.03;;;15.67;;
7657;SDS011;8462;53.156;8.220;2023-02-17T04:08:35;31.67;;;16.13;;
7657;SDS011;8462;53.156;8.220;2023-02-17T04:11:04;31.17;;;16.53;;
7657;SDS011;8462;53.156;8.220;2023-02-17T04:13:33;34.50;;;17.17;;
7657;SDS011;8462;53.156;8.220;2023-02-17T04:16:01;32.87;;;16.70;;
7657;SDS011;8462;53.156;8.220;2023-02-17T04:18:29;35.47;;;17.43;;
7657;SDS011;8462;53.156;8.220;2023-02-17T04:20:57;31.20;;;16.80;;
7657;SDS011;8462;53.156;8.220;2023-02-17T04:23:24;33.17;;;16.20;;
7657;SDS011;8462;53.156;8.220;2023-02-17T04:25:52;32.60;;;17.17;;
7657;SDS011;8462;53.156;8.220;2023-02-17T04:28:20;32.13;;;16.90;;
7657;SDS011;8462;53.156;8.220;2023-02-17T04:30:48;31.63;;;16.37;;
7657;SDS011;8462;53.156;8.220;2023-02-17T04:33:15;31.83;;;16.77;;
7657;SDS011;8462;53.156;8.220;2023-02-17T04:35:43;28.90;;;15.97;;
7657;SDS011;8462;53.156;8.220;2023-02-17T04:38:10;28.57;;;16.33;;
7657;SDS011;8462;53.156;8.220;2023-02-17T04:40:37;33.77;;;18.30;;
7657;SDS011;8462;53.156;8.220;2023-02-17T04:43:04;30.60;;;16.97;;
7657;SDS011;8462;53.156;8.220;2023-02-17T04:45:34;27.57;;;16.37;;
7657;SDS011;8462;53.156;8.220;2023-02-17T04:48:01;32.53;;;17.20;;
7657;SDS011;8462;53.156;8.220;2023-02-17T04:50:28;32.07;;;16.33;;
7657;SDS011;8462;53.156;8.220;2023-02-17T04:52:55;27.23;;;15.70;;
7657;SDS011;8462;53.156;8.220;2023-02-17T04:55:22;31.30;;;16.23;;
7657;SDS011;8462;53.156;8.220;2023-02-17T04:57:49;29.83;;;16.37;;
7657;SDS011;8462;53.156;8.220;2023-02-17T05:00:16;29.90;;;15.77;;
7657;SDS011;8462;53.156;8.220;2023-02-17T05:02:45;29.47;;;16.83;;
7657;SDS011;8462;53.156;8.220;2023-02-17T05:05:12;30.17;;;17.37;;
7657;SDS011;8462;53.156;8.220;2023-02-17T05:07:39;26.47;;;16.00;;
7657;SDS011;8462;53.156;8.220;2023-02-17T05:10:07;33.13;;;17.87;;
7657;SDS011;8462;53.156;8.220;2023-02-17T05:12:34;29.27;;;17.90;;
7657;SDS011;8462;53.156;8.220;2023-02-17T05:15:01;31.00;;;17.47;;
7657;SDS011;8462;53.156;8.220;2023-02-17T05:17:28;32.50;;;18.10;;
7657;SDS011;8462;53.156;8.220;2023-02-17T05:19:58;30.20;;;16.67;;
7657;SDS011;8462;53.156;8.220;2023-02-17T05:22:25;35.43;;;17.77;;
7657;SDS011;8462;53.156;8.220;2023-02-17T05:24:53;31.80;;;17.97;;
7657;SDS011;8462;53.156;8.220;2023-02-17T05:27:20;32.80;;;18.40;;
7657;SDS011;8462;53.156;8.220;2023-02-17T05:29:47;30.77;;;16.37;;
7657;SDS011;8462;53.156;8.220;2023-02-17T05:32:14;32.20;;;16.63;;
7657;SDS011;8462;53.156;8.220;2023-02-17T05:34:41;29.97;;;17.07;;
7657;SDS011;8462;53.156;8.220;2023-02-17T05:37:09;29.93;;;16.50;;
7657;SDS011;8462;53.156;8.220;2023-02-17T05:39:36;33.00;;;16.77;;
7657;SDS011;8462;53.156;8.220;2023-02-17T05:42:03;33.23;;;16.10;;
7657;SDS011;8462;53.156;8.220;2023-02-17T05:44:30;29.10;;;15.80;;
7657;SDS011;8462;53.156;8.220;2023-02-17T05:46:57;27.80;;;16.60;;
7657;SDS011;8462;53.156;8.220;2023-02-17T05:49:24;32.37;;;16.83;;
7657;SDS011;8462;53.156;8.220;2023-02-17T05:51:51;31.03;;;16.73;;
7657;SDS011;8462;53.156;8.220;2023-02-17T05:54:19;29.53;;;16.67;;
7657;SDS011;8462;53.156;8.220;2023-02-17T05:56:46;31.23;;;15.53;;
7657;SDS011;8462;53.156;8.220;2023-02-17T05:59:13;27.47;;;14.37;;
7657;SDS011;8462;53.156;8.220;2023-02-17T06:01:40;25.37;;;14.80;;
7657;SDS011;8462;53.156;8.220;2023-02-17T06:04:07;27.20;;;14.57;;
7657;SDS011;8462;53.156;8.220;2023-02-17T06:06:34;29.27;;;16.00;;
7657;SDS011;8462;53.156;8.220;2023-02-17T06:09:01;24.47;;;15.00;;
7657;SDS011;8462;53.156;8.220;2023-02-17T06:11:30;28.83;;;15.13;;
7657;SDS011;8462;53.156;8.220;2023-02-17T06:13:57;24.13;;;13.60;;
7657;SDS011;8462;53.156;8.220;2023-02-17T06:16:25;26.10;;;15.13;;
7657;SDS011;8462;53.156;8.220;2023-02-17T06:18:52;25.43;;;13.70;;
7657;SDS011;8462;53.156;8.220;2023-02-17T06:21:18;25.53;;;14.17;;
7657;SDS011;8462;53.156;8.220;2023-02-17T06:23:46;25.87;;;13.53;;
7657;SDS011;8462;53.156;8.220;2023-02-17T06:26:13;27.90;;;14.20;;
7657;SDS011;8462;53.156;8.220;2023-02-17T06:28:44;24.50;;;12.63;;
7657;SDS011;8462;53.156;8.220;2023-02-17T06:31:10;27.00;;;13.50;;
7657;SDS011;8462;53.156;8.220;2023-02-17T06:33:38;21.07;;;11.70;;
7657;SDS011;8462;53.156;8.220;2023-02-17T06:36:06;25.97;;;12.50;;
7657;SDS011;8462;53.156;8.220;2023-02-17T06:38:33;21.07;;;11.73;;
7657;SDS011;8462;53.156;8.220;2023-02-17T06:41:00;22.23;;;11.53;;
7657;SDS011;8462;53.156;8.220;2023-02-17T06:43:27;23.43;;;12.07;;
7657;SDS011;8462;53.156;8.220;2023-02-17T06:45:56;24.37;;;12.73;;
7657;SDS011;8462;53.156;8.220;2023-02-17T06:48:22;20.03;;;10.93;;
7657;SDS011;8462;53.156;8.220;2023-02-17T06:50:49;23.87;;;11.13;;
7657;SDS011;8462;53.156;8.220;2023-02-17T06:53:16;25.67;;;11.40;;
7657;SDS011;8462;53.156;8.220;2023-02-17T06:55:43;20.97;;;10.57;;
7657;SDS011;8462;53.156;8.220;2023-02-17T06:58:10;21.73;;;10.07;;
7657;SDS011;8462;53.156;8.220;2023-02-17T07:00:37;21.17;;;11.00;;
7657;SDS011;8462;53.156;8.220;2023-02-17T07:03:05;21.77;;;10.87;;
7657;SDS011;8462;53.156;8.220;2023-02-17T07:05:33;18.93;;;9.47;;
7657;SDS011;8462;53.156;8.220;2023-02-17T07:08:00;18.70;;;9.87;;
7657;SDS011;8462;53.156;8.220;2023-02-17T07:10:27;17.47;;;9.70;;
7657;SDS011;8462;53.156;8.220;2023-02-17T07:12:54;21.23;;;9.23;;
7657;SDS011;8462;53.156;8.220;2023-02-17T07:15:21;18.43;;;10.03;;
7657;SDS011;8462;53.156;8.220;2023-02-17T07:17:48;16.30;;;8.80;;
7657;SDS011;8462;53.156;8.220;2023-02-17T07:20:17;16.07;;;8.93;;
7657;SDS011;8462;53.156;8.220;2023-02-17T07:22:44;19.87;;;9.60;;
7657;SDS011;8462;53.156;8.220;2023-02-17T07:25:11;14.57;;;8.77;;
7657;SDS011;8462;53.156;8.220;2023-02-17T07:27:38;17.70;;;9.27;;
7657;SDS011;8462;53.156;8.220;2023-02-17T07:30:05;15.93;;;8.27;;
7657;SDS011;8462;53.156;8.220;2023-02-17T07:32:33;17.30;;;8.67;;
7657;SDS011;8462;53.156;8.220;2023-02-17T07:35:00;15.13;;;9.00;;
7657;SDS011;8462;53.156;8.220;2023-02-17T07:37:28;17.27;;;9.17;;
7657;SDS011;8462;53.156;8.220;2023-02-17T07:39:55;19.13;;;10.10;;
7657;SDS011;8462;53.156;8.220;2023-02-17T07:42:22;18.23;;;10.10;;
7657;SDS011;8462;53.156;8.220;2023-02-17T07:44:50;18.17;;;9.77;;
7657;SDS011;8462;53.156;8.220;2023-02-17T07:47:17;20.93;;;11.10;;
7657;SDS011;8462;53.156;8.220;2023-02-17T07:49:44;19.00;;;10.60;;
7657;SDS011;8462;53.156;8.220;2023-02-17T07:52:11;20.97;;;11.03;;
7657;SDS011;8462;53.156;8.220;2023-02-17T07:54:39;19.63;;;11.00;;
7657;SDS011;8462;53.156;8.220;2023-02-17T07:57:06;25.00;;;10.57;;
7657;SDS011;8462;53.156;8.220;2023-02-17T07:59:33;24.33;;;11.87;;
7657;SDS011;8462;53.156;8.220;2023-02-17T08:02:00;20.83;;;11.03;;
7657;SDS011;8462;53.156;8.220;2023-02-17T08:04:27;23.33;;;11.43;;
7657;SDS011;8462;53.156;8.220;2023-02-17T08:06:54;27.70;;;12.43;;
7657;SDS011;8462;53.156;8.220;2023-02-17T08:09:20;24.40;;;12.57;;
7657;SDS011;8462;53.156;8.220;2023-02-17T08:12:08;23.43;;;12.53;;
7657;SDS011;8462;53.156;8.220;2023-02-17T08:14:57;26.27;;;12.97;;
7657;SDS011;8462;53.156;8.220;2023-02-17T08:17:26;25.73;;;13.10;;
7657;SDS011;8462;53.156;8.220;2023-02-17T08:19:53;29.77;;;13.20;;
7657;SDS011;8462;53.156;8.220;2023-02-17T08:22:20;27.27;;;14.20;;
7657;SDS011;8462;53.156;8.220;2023-02-17T08:24:49;27.30;;;14.57;;
7657;SDS011;8462;53.156;8.220;2023-02-17T08:27:17;33.13;;;14.83;;
7657;SDS011;8462;53.156;8.220;2023-02-17T08:29:47;29.53;;;14.73;;
7657;SDS011;8462;53.156;8.220;2023-02-17T08:32:15;29.20;;;14.87;;
7657;SDS011;8462;53.156;8.220;2023-02-17T08:34:42;28.87;;;14.40;;
7657;SDS011;8462;53.156;8.220;2023-02-17T08:37:10;28.57;;;15.80;;
7657;SDS011;8462;53.156;8.220;2023-02-17T08:39:37;34.40;;;15.97;;
7657;SDS011;8462;53.156;8.220;2023-02-17T08:42:04;32.40;;;15.97;;
7657;SDS011;8462;53.156;8.220;2023-02-17T08:44:33;31.63;;;15.47;;
7657;SDS011;8462;53.156;8.220;2023-02-17T08:47:02;35.80;;;15.03;;
7657;SDS011;8462;53.156;8.220;2023-02-17T08:49:32;31.63;;;15.50;;
7657;SDS011;8462;53.156;8.220;2023-02-17T08:52:00;28.93;;;15.13;;
7657;SDS011;8462;53.156;8.220;2023-02-17T08:54:27;30.63;;;14.33;;
7657;SDS011;8462;53.156;8.220;2023-02-17T08:56:54;29.37;;;13.60;;
7657;SDS011;8462;53.156;8.220;2023-02-17T08:59:23;35.17;;;15.43;;
7657;SDS011;8462;53.156;8.220;2023-02-17T09:01:51;29.43;;;14.50;;
7657;SDS011;8462;53.156;8.220;2023-02-17T09:04:20;29.53;;;14.70;;
7657;SDS011;8462;53.156;8.220;2023-02-17T09:06:48;27.23;;;14.10;;
7657;SDS011;8462;53.156;8.220;2023-02-17T09:09:18;27.60;;;13.77;;
7657;SDS011;8462;53.156;8.220;2023-02-17T09:11:47;28.00;;;14.53;;
7657;SDS011;8462;53.156;8.220;2023-02-17T09:14:14;29.97;;;15.27;;
7657;SDS011;8462;53.156;8.220;2023-02-17T09:16:42;30.73;;;13.63;;
7657;SDS011;8462;53.156;8.220;2023-02-17T09:19:13;26.43;;;14.07;;
7657;SDS011;8462;53.156;8.220;2023-02-17T09:21:39;35.13;;;14.33;;
7657;SDS011;8462;53.156;8.220;2023-02-17T09:24:06;25.17;;;13.03;;
7657;SDS011;8462;53.156;8.220;2023-02-17T09:26:33;25.87;;;13.23;;
7657;SDS011;8462;53.156;8.220;2023-02-17T09:29:01;29.07;;;14.40;;
7657;SDS011;8462;53.156;8.220;2023-02-17T09:31:28;26.80;;;13.67;;
7657;SDS011;8462;53.156;8.220;2023-02-17T09:33:56;26.53;;;13.57;;
7657;SDS011;8462;53.156;8.220;2023-02-17T09:36:27;26.03;;;12.67;;
7657;SDS011;8462;53.156;8.220;2023-02-17T09:38:56;23.47;;;11.77;;
7657;SDS011;8462;53.156;8.220;2023-02-17T09:41:25;22.60;;;13.00;;
7657;SDS011;8462;53.156;8.220;2023-02-17T09:43:57;27.17;;;13.17;;
7657;SDS011;8462;53.156;8.220;2023-02-17T09:46:26;27.53;;;13.73;;
7657;SDS011;8462;53.156;8.220;2023-02-17T09:48:55;27.80;;;13.30;;
7657;SDS011;8462;53.156;8.220;2023-02-17T09:51:28;21.30;;;12.50;;
7657;SDS011;8462;53.156;8.220;2023-02-17T09:54:03;22.03;;;11.77;;
7657;SDS011;8462;53.156;8.220;2023-02-17T09:56:37;25.43;;;13.50;;
7657;SDS011;8462;53.156;8.220;2023-02-17T09:59:10;25.17;;;13.37;;
7657;SDS011;8462;53.156;8.220;2023-02-17T10:01:41;24.10;;;12.17;;
7657;SDS011;8462;53.156;8.220;2023-02-17T10:04:13;21.93;;;12.23;;
7657;SDS011;8462;53.156;8.220;2023-02-17T10:06:48;23.03;;;12.77;;
7657;SDS011;8462;53.156;8.220;2023-02-17T10:09:18;23.60;;;12.90;;
7657;SDS011;8462;53.156;8.220;2023-02-17T10:11:50;23.80;;;12.77;;
7657;SDS011;8462;53.156;8.220;2023-02-17T10:14:21;22.47;;;12.10;;
7657;SDS011;8462;53.156;8.220;2023-02-17T10:16:53;20.10;;;11.93;;
7657;SDS011;8462;53.156;8.220;2023-02-17T10:19:27;25.67;;;12.70;;
7657;SDS011;8462;53.156;8.220;2023-02-17T10:22:03;25.83;;;12.20;;
7657;SDS011;8462;53.156;8.220;2023-02-17T10:24:32;18.13;;;11.37;;
7657;SDS011;8462;53.156;8.220;2023-02-17T10:27:03;20.80;;;11.13;;
7657;SDS011;8462;53.156;8.220;2023-02-17T10:29:55;19.90;;;10.90;;
7657;SDS011;8462;53.156;8.220;2023-02-17T10:32:34;20.57;;;11.53;;
7657;SDS011;8462;53.156;8.220;2023-02-17T10:35:12;24.10;;;11.33;;
7657;SDS011;8462;53.156;8.220;2023-02-17T10:37:45;21.23;;;11.07;;
7657;SDS011;8462;53.156;8.220;2023-02-17T10:40:16;19.83;;;10.37;;
7657;SDS011;8462;53.156;8.220;2023-02-17T10:42:45;17.83;;;9.87;;
7657;SDS011;8462;53.156;8.220;2023-02-17T10:45:18;21.97;;;10.73;;
7657;SDS011;8462;53.156;8.220;2023-02-17T10:47:51;17.20;;;10.53;;
7657;SDS011;8462;53.156;8.220;2023-02-17T10:50:23;16.87;;;10.00;;
7657;SDS011;8462;53.156;8.220;2023-02-17T10:52:52;15.93;;;9.17;;
7657;SDS011;8462;53.156;8.220;2023-02-17T10:55:22;18.17;;;10.30;;
7657;SDS011;8462;53.156;8.220;2023-02-17T10:57:56;15.23;;;9.37;;
7657;SDS011;8462;53.156;8.220;2023-02-17T11:00:29;14.27;;;9.10;;
7657;SDS011;8462;53.156;8.220;2023-02-17T11:02:57;15.23;;;9.37;;
7657;SDS011;8462;53.156;8.220;2023-02-17T11:05:26;15.20;;;8.60;;
7657;SDS011;8462;53.156;8.220;2023-02-17T11:07:57;14.97;;;8.77;;
7657;SDS011;8462;53.156;8.220;2023-02-17T11:10:28;14.03;;;8.67;;
7657;SDS011;8462;53.156;8.220;2023-02-17T11:12:57;20.07;;;11.53;;
7657;SDS011;8462;53.156;8.220;2023-02-17T11:15:28;16.77;;;8.50;;
7657;SDS011;8462;53.156;8.220;2023-02-17T11:17:58;13.20;;;8.33;;
7657;SDS011;8462;53.156;8.220;2023-02-17T11:20:28;15.07;;;8.23;;
7657;SDS011;8462;53.156;8.220;2023-02-17T11:23:06;16.03;;;8.80;;
7657;SDS011;8462;53.156;8.220;2023-02-17T11:25:58;15.83;;;8.90;;
7657;SDS011;8462;53.156;8.220;2023-02-17T11:28:29;12.67;;;7.63;;
7657;SDS011;8462;53.156;8.220;2023-02-17T11:30:58;12.70;;;7.83;;
7657;SDS011;8462;53.156;8.220;2023-02-17T11:33:31;13.13;;;8.00;;
7657;SDS011;8462;53.156;8.220;2023-02-17T11:36:01;11.70;;;8.27;;
7657;SDS011;8462;53.156;8.220;2023-02-17T11:38:33;13.43;;;7.20;;
7657;SDS011;8462;53.156;8.220;2023-02-17T11:41:10;14.63;;;8.47;;
7657;SDS011;8462;53.156;8.220;2023-02-17T11:43:37;13.27;;;7.80;;
7657;SDS011;8462;53.156;8.220;2023-02-17T11:46:15;15.13;;;7.80;;
7657;SDS011;8462;53.156;8.220;2023-02-17T11:51:47;11.07;;;6.63;;
7657;SDS011;8462;53.156;8.220;2023-02-17T11:54:25;9.67;;;5.90;;
7657;SDS011;8462;53.156;8.220;2023-02-17T11:57:29;12.80;;;6.80;;
7657;SDS011;8462;53.156;8.220;2023-02-17T12:00:08;11.60;;;6.43;;
7657;SDS011;8462;53.156;8.220;2023-02-17T12:05:50;11.77;;;6.63;;
7657;SDS011;8462;53.156;8.220;2023-02-17T12:08:26;11.40;;;6.17;;
7657;SDS011;8462;53.156;8.220;2023-02-17T12:11:06;12.37;;;6.93;;
7657;SDS011;8462;53.156;8.220;2023-02-17T12:13:44;14.33;;;6.67;;
7657;SDS011;8462;53.156;8.220;2023-02-17T12:16:26;13.37;;;6.57;;
7657;SDS011;8462;53.156;8.220;2023-02-17T12:19:01;10.27;;;6.00;;
7657;SDS011;8462;53.156;8.220;2023-02-17T12:21:44;9.97;;;5.60;;
7657;SDS011;8462;53.156;8.220;2023-02-17T12:24:33;8.57;;;5.43;;
7657;SDS011;8462;53.156;8.220;2023-02-17T12:27:26;9.77;;;5.33;;
7657;SDS011;8462;53.156;8.220;2023-02-17T12:30:06;11.63;;;5.40;;
7657;SDS011;8462;53.156;8.220;2023-02-17T12:35:48;11.07;;;5.47;;
7657;SDS011;8462;53.156;8.220;2023-02-17T12:38:21;10.30;;;4.70;;
7657;SDS011;8462;53.156;8.220;2023-02-17T12:40:52;12.00;;;5.43;;
7657;SDS011;8462;53.156;8.220;2023-02-17T12:43:30;8.40;;;4.27;;
7657;SDS011;8462;53.156;8.220;2023-02-17T12:46:02;7.90;;;3.93;;
7657;SDS011;8462;53.156;8.220;2023-02-17T12:48:33;9.33;;;4.20;;
7657;SDS011;8462;53.156;8.220;2023-02-17T12:51:05;8.70;;;4.70;;
7657;SDS011;8462;53.156;8.220;2023-02-17T12:53:41;8.10;;;4.00;;
7657;SDS011;8462;53.156;8.220;2023-02-17T12:56:32;9.67;;;4.73;;
7657;SDS011;8462;53.156;8.220;2023-02-17T12:59:20;10.17;;;5.13;;
7657;SDS011;8462;53.156;8.220;2023-02-17T13:01:53;10.37;;;4.03;;
7657;SDS011;8462;53.156;8.220;2023-02-17T13:04:23;8.40;;;3.90;;
7657;SDS011;8462;53.156;8.220;2023-02-17T13:06:56;9.83;;;4.50;;
7657;SDS011;8462;53.156;8.220;2023-02-17T13:09:30;6.87;;;4.07;;
7657;SDS011;8462;53.156;8.220;2023-02-17T13:12:07;9.00;;;3.20;;
7657;SDS011;8462;53.156;8.220;2023-02-17T13:14:41;6.73;;;3.43;;
7657;SDS011;8462;53.156;8.220;2023-02-17T13:17:22;8.27;;;4.20;;
7657;SDS011;8462;53.156;8.220;2023-02-17T13:23:01;6.10;;;3.13;;
7657;SDS011;8462;53.156;8.220;2023-02-17T13:25:31;4.43;;;2.83;;
7657;SDS011;8462;53.156;8.220;2023-02-17T13:28:00;9.03;;;3.33;;
7657;SDS011;8462;53.156;8.220;2023-02-17T13:30:37;5.50;;;3.20;;
7657;SDS011;8462;53.156;8.220;2023-02-17T13:33:07;8.27;;;3.53;;
7657;SDS011;8462;53.156;8.220;2023-02-17T13:35:53;10.90;;;3.43;;
7657;SDS011;8462;53.156;8.220;2023-02-17T13:38:26;9.20;;;3.83;;
7657;SDS011;8462;53.156;8.220;2023-02-17T13:40:58;6.20;;;2.87;;
7657;SDS011;8462;53.156;8.220;2023-02-17T13:43:28;6.43;;;2.87;;
7657;SDS011;8462;53.156;8.220;2023-02-17T13:45:58;6.40;;;2.73;;
7657;SDS011;8462;53.156;8.220;2023-02-17T13:48:28;8.27;;;3.17;;
7657;SDS011;8462;53.156;8.220;2023-02-17T13:50:57;5.93;;;2.73;;
7657;SDS011;8462;53.156;8.220;2023-02-17T13:53:27;8.17;;;2.93;;
7657;SDS011;8462;53.156;8.220;2023-02-17T13:55:56;6.27;;;3.00;;
7657;SDS011;8462;53.156;8.220;2023-02-17T13:58:25;6.57;;;2.63;;
7657;SDS011;8462;53.156;8.220;2023-02-17T14:00:54;5.97;;;2.47;;
7657;SDS011;8462;53.156;8.220;2023-02-17T14:03:24;4.33;;;2.20;;
7657;SDS011;8462;53.156;8.220;2023-02-17T14:05:52;8.97;;;3.23;;
7657;SDS011;8462;53.156;8.220;2023-02-17T14:08:24;2.47;;;2.13;;
7657;SDS011;8462;53.156;8.220;2023-02-17T14:10:56;3.80;;;2.57;;
7657;SDS011;8462;53.156;8.220;2023-02-17T14:13:24;7.00;;;2.00;;
7657;SDS011;8462;53.156;8.220;2023-02-17T14:15:52;5.67;;;2.40;;
7657;SDS011;8462;53.156;8.220;2023-02-17T14:18:28;6.03;;;2.30;;
7657;SDS011;8462;53.156;8.220;2023-02-17T14:21:01;3.87;;;2.03;;
7657;SDS011;8462;53.156;8.220;2023-02-17T14:23:41;5.53;;;2.30;;
7657;SDS011;8462;53.156;8.220;2023-02-17T14:26:14;4.90;;;1.33;;
7657;SDS011;8462;53.156;8.220;2023-02-17T14:28:52;5.00;;;1.77;;
7657;SDS011;8462;53.156;8.220;2023-02-17T14:31:19;7.80;;;1.80;;
7657;SDS011;8462;53.156;8.220;2023-02-17T14:33:52;3.87;;;1.50;;
7657;SDS011;8462;53.156;8.220;2023-02-17T14:36:24;4.70;;;1.80;;
7657;SDS011;8462;53.156;8.220;2023-02-17T14:39:02;5.20;;;1.53;;
7657;SDS011;8462;53.156;8.220;2023-02-17T14:41:31;4.17;;;1.57;;
7657;SDS011;8462;53.156;8.220;2023-02-17T14:43:58;4.13;;;1.43;;
7657;SDS011;8462;53.156;8.220;2023-02-17T14:46:27;3.87;;;1.83;;
7657;SDS011;8462;53.156;8.220;2023-02-17T14:48:55;5.63;;;1.70;;
7657;SDS011;8462;53.156;8.220;2023-02-17T14:51:22;2.93;;;1.10;;
7657;SDS011;8462;53.156;8.220;2023-02-17T14:53:51;2.73;;;1.70;;
7657;SDS011;8462;53.156;8.220;2023-02-17T14:56:20;3.13;;;1.70;;
7657;SDS011;8462;53.156;8.220;2023-02-17T14:58:50;4.73;;;1.33;;
7657;SDS011;8462;53.156;8.220;2023-02-17T15:01:18;5.93;;;1.57;;
7657;SDS011;8462;53.156;8.220;2023-02-17T15:03:47;6.70;;;1.80;;
7657;SDS011;8462;53.156;8.220;2023-02-17T15:06:16;5.30;;;2.03;;
7657;SDS011;8462;53.156;8.220;2023-02-17T15:08:45;3.47;;;1.50;;
7657;SDS011;8462;53.156;8.220;2023-02-17T15:11:17;4.20;;;2.20;;
7657;SDS011;8462;53.156;8.220;2023-02-17T15:13:46;5.50;;;1.87;;
7657;SDS011;8462;53.156;8.220;2023-02-17T15:16:13;7.13;;;1.67;;
7657;SDS011;8462;53.156;8.220;2023-02-17T15:18:40;6.67;;;1.80;;
7657;SDS011;8462;53.156;8.220;2023-02-17T15:21:14;3.17;;;1.10;;
7657;SDS011;8462;53.156;8.220;2023-02-17T15:23:49;3.33;;;1.20;;
7657;SDS011;8462;53.156;8.220;2023-02-17T15:26:18;4.47;;;1.90;;
7657;SDS011;8462;53.156;8.220;2023-02-17T15:28:45;5.03;;;1.60;;
7657;SDS011;8462;53.156;8.220;2023-02-17T15:31:12;6.97;;;1.80;;